Main page
METAR-TAF:

METAR-TAF

Airports :

Nador International Airport

Nador, Morocco

latitude: 34-59-20N, longitude: 003-01-42W, elevation: 175 m

Current weather observation

The report was made 49 minutes ago, at 03:00 UTC
Wind 5 kt from the Northeast, varying between North and East/Northeast
Temperature 18°C
Humidity 88%
Pressure 1022 hPa
Visibility 10 km or more
Few clouds at a height of 1000 ft
Broken clouds at a height of 1700 ft

METAR: GMMW 260300Z 04005KT 010V070 9999 FEW010 BKN017 18/16 Q1022 NOSIG

Time: 04:49 (03:49 UTC)

Forecast

The report was made 4 hours and 49 minutes ago, at 23:00 UTC
Forecast valid from 26 at 00 UTC to 27 at 06 UTC
Wind 6 kt from the North/Northeast
Visibility 10 km or more
Few clouds at a height of 1200 ft
Broken clouds at a height of 2000 ft

TAF: GMMW 252300Z 2600/2706 03006KT 9999 FEW012 BKN020

Weather observations and forecasts of more than 4000 airports (METAR and TAF reports).

The available stations are represented by yellow and red dots on the map.

Hover mouse over dot to see the name of the station.

Then click to see weather observations and forecasts.

To change the map : click on the green buttons with a black cross to zoom in, on the green button with a dash to zoom out, or on the green arrows for adjacent maps.


METAR-TAF: